| time (UTC) | temp F | wind direction | speed MPH | gust MPH | rain 1hr in | rain 24hr in | rain mn in | humidity % | barometer mb |
| 20260906202743 | 101 | 169 | 2.0 | 2.0 | 0.00 | 0.00 | 0.00 | 30 | 1012.7 |
| 20260906202244 | 101 | 168 | 5.0 | 6.0 | 0.00 | 0.00 | 0.00 | 30 | 1012.8 |
| 20260906201743 | 101 | 163 | 3.0 | 4.0 | 0.00 | 0.00 | 0.00 | 29 | 1012.9 |
| 20260906201244 | 101 | 30 | 1.0 | 1.0 | 0.00 | 0.00 | 0.00 | 30 | 1012.8 |
| 20260906200743 | 101 | 174 | 1.0 | 2.0 | 0.00 | 0.00 | 0.00 | 29 | 1012.9 |
| 20260906200244 | 100 | 174 | 3.0 | 3.0 | 0.00 | 0.00 | 0.00 | 30 | 1013.0 |
| 20260906195743 | 100 | 164 | 4.0 | 4.0 | 0.00 | 0.00 | 0.00 | 31 | 1013.1 |
| 20260906195243 | 100 | 139 | 1.0 | 1.0 | 0.00 | 0.00 | 0.00 | 32 | 1013.2 |
| 20260906194744 | 100 | 172 | 1.0 | 1.0 | 0.00 | 0.00 | 0.00 | 31 | 1013.3 |
| 20260906194243 | 100 | 36 | 1.0 | 2.0 | 0.00 | 0.00 | 0.00 | 31 | 1013.3 |
| 20260906193744 | 100 | 148 | 3.0 | 4.0 | 0.00 | 0.00 | 0.00 | 31 | 1013.4 |
| 20260906193243 | 99 | 165 | 3.0 | 4.0 | 0.00 | 0.00 | 0.00 | 32 | 1013.5 |
| 20260906192743 | 99 | 165 | 4.0 | 5.0 | 0.00 | 0.00 | 0.00 | 32 | 1013.5 |
| 20260906192244 | 100 | 159 | 1.0 | 2.0 | 0.00 | 0.00 | 0.00 | 33 | 1013.5 |
| 20260906191744 | 100 | 158 | 2.0 | 3.0 | 0.00 | 0.00 | 0.00 | 33 | 1013.6 |
| 20260906191243 | 101 | 163 | 3.0 | 3.0 | 0.00 | 0.00 | 0.00 | 32 | 1013.6 |
| 20260906190743 | 100 | 134 | 2.0 | 3.0 | 0.00 | 0.00 | 0.00 | 33 | 1013.7 |
| 20260906190243 | 101 | 163 | 3.0 | 5.0 | 0.00 | 0.00 | 0.00 | 31 | 1013.8 |
| 20260906185743 | 100 | 156 | 4.0 | 5.0 | 0.00 | 0.00 | 0.00 | 30 | 1013.8 |
| 20260906185243 | 99 | 146 | 1.0 | 2.0 | 0.00 | 0.00 | 0.00 | 33 | 1013.9 |
| 20260906184743 | 99 | 130 | 3.0 | 3.0 | 0.00 | 0.00 | 0.00 | 34 | 1014.0 |
| 20260906184243 | 99 | 162 | 4.0 | 6.0 | 0.00 | 0.00 | 0.00 | 34 | 1014.0 |
| 20260906183744 | 99 | 148 | 2.0 | 3.0 | 0.00 | 0.00 | 0.00 | 34 | 1014.1 |
| 20260906183244 | 99 | 27 | 2.0 | 3.0 | 0.00 | 0.00 | 0.00 | 34 | 1014.2 |
| 20260906182743 | 99 | 145 | 2.0 | 2.0 | 0.00 | 0.00 | 0.00 | 34 | 1014.2 |
| 20260906182243 | 99 | 155 | 4.0 | 6.0 | 0.00 | 0.00 | 0.00 | 35 | 1014.4 |
| 20260906181743 | 100 | 153 | 2.0 | 3.0 | 0.00 | 0.00 | 0.00 | 34 | 1014.5 |
| 20260906181243 | 100 | 149 | 1.0 | 2.0 | 0.00 | 0.00 | 0.00 | 33 | 1014.5 |
| 20260906180743 | 100 | 160 | 2.0 | 4.0 | 0.00 | 0.00 | 0.00 | 34 | 1014.5 |
| 20260906180244 | 100 | 337 | 1.0 | 1.0 | 0.00 | 0.00 | 0.00 | 33 | 1014.6 |
| 20260906175743 | 100 | 151 | 4.0 | 5.0 | 0.00 | 0.00 | 0.00 | 34 | 1014.8 |
| 20260906175243 | 100 | 106 | 0.0 | 1.0 | 0.00 | 0.00 | 0.00 | 34 | 1014.9 |
| 20260906174742 | 99 | 356 | 0.0 | 1.0 | 0.00 | 0.00 | 0.00 | 34 | 1014.9 |
| 20260906174243 | 98 | 159 | 2.0 | 2.0 | 0.00 | 0.00 | 0.00 | 35 | 1015.0 |
| 20260906173743 | 98 | 173 | 4.0 | 5.0 | 0.00 | 0.00 | 0.00 | 36 | 1015.2 |
| 20260906173243 | 98 | 155 | 4.0 | 6.0 | 0.00 | 0.00 | 0.00 | 36 | 1015.2 |
| 20260906172745 | 98 | 144 | 1.0 | 2.0 | 0.00 | 0.00 | 0.00 | 36 | 1015.3 |
| 20260906172243 | 98 | 165 | 2.0 | 3.0 | 0.00 | 0.00 | 0.00 | 36 | 1015.4 |
| 20260906171743 | 98 | 347 | 1.0 | 2.0 | 0.00 | 0.00 | 0.00 | 37 | 1015.5 |
| 20260906171243 | 98 | 164 | 3.0 | 4.0 | 0.00 | 0.00 | 0.00 | 37 | 1015.5 |
| 20260906170744 | 98 | 22 | 3.0 | 4.0 | 0.00 | 0.00 | 0.00 | 36 | 1015.6 |
| 20260906170244 | 97 | 156 | 3.0 | 3.0 | 0.00 | 0.00 | 0.00 | 38 | 1015.7 |
| 20260906165743 | 96 | 187 | 1.0 | 1.0 | 0.00 | 0.00 | 0.00 | 40 | 1015.7 |
| 20260906165244 | 97 | 162 | 3.0 | 3.0 | 0.00 | 0.00 | 0.00 | 39 | 1015.8 |
| 20260906164743 | 97 | 153 | 2.0 | 2.0 | 0.00 | 0.00 | 0.00 | 39 | 1015.9 |
| 20260906164243 | 97 | 156 | 1.0 | 1.0 | 0.00 | 0.00 | 0.00 | 39 | 1015.9 |
| 20260906163744 | 97 | 181 | 0.0 | 0.0 | 0.00 | 0.00 | 0.00 | 39 | 1016.0 |
| 20260906163243 | 97 | 360 | 0.0 | 0.0 | 0.00 | 0.00 | 0.00 | 39 | 1016.0 |
| 20260906162743 | 97 | 152 | 3.0 | 4.0 | 0.00 | 0.00 | 0.00 | 38 | 1015.9 |
| 20260906162243 | 97 | 105 | 1.0 | 2.0 | 0.00 | 0.00 | 0.00 | 39 | 1015.9 |
| 20260906161743 | 97 | 185 | 1.0 | 1.0 | 0.00 | 0.00 | 0.00 | 39 | 1015.8 |
| 20260906161243 | 96 | 149 | 4.0 | 6.0 | 0.00 | 0.00 | 0.00 | 39 | 1015.8 |
| 20260906160743 | 96 | 164 | 2.0 | 2.0 | 0.00 | 0.00 | 0.00 | 40 | 1015.8 |
| 20260906160243 | 95 | 309 | 0.0 | 1.0 | 0.00 | 0.00 | 0.00 | 40 | 1015.8 |
| 20260906155743 | 95 | 63 | 1.0 | 1.0 | 0.00 | 0.00 | 0.00 | 41 | 1015.8 |
| 20260906155243 | 95 | 342 | 0.0 | 0.0 | 0.00 | 0.00 | 0.00 | 41 | 1015.8 |
| 20260906154743 | 95 | 6 | 1.0 | 1.0 | 0.00 | 0.00 | 0.00 | 41 | 1015.8 |
| 20260906154244 | 94 | 360 | 0.0 | 0.0 | 0.00 | 0.00 | 0.00 | 42 | 1015.7 |
| 20260906153744 | 94 | 325 | 0.0 | 0.0 | 0.00 | 0.00 | 0.00 | 43 | 1015.7 |
| 20260906153244 | 93 | 360 | 0.0 | 0.0 | 0.00 | 0.00 | 0.00 | 43 | 1015.7 |
| 20260906152743 | 93 | 144 | 3.0 | 4.0 | 0.00 | 0.00 | 0.00 | 44 | 1015.6 |
| 20260906152243 | 92 | 348 | 1.0 | 1.0 | 0.00 | 0.00 | 0.00 | 45 | 1015.7 |
| 20260906151743 | 92 | 153 | 2.0 | 3.0 | 0.00 | 0.00 | 0.00 | 46 | 1015.6 |
| 20260906151244 | 91 | 360 | 0.0 | 0.0 | 0.00 | 0.00 | 0.00 | 46 | 1015.6 |
| 20260906150745 | 91 | 190 | 0.0 | 0.0 | 0.00 | 0.00 | 0.00 | 47 | 1015.6 |
| 20260906150244 | 91 | 114 | 0.0 | 0.0 | 0.00 | 0.00 | 0.00 | 47 | 1015.6 |
| 20260906145744 | 91 | 360 | 0.0 | 0.0 | 0.00 | 0.00 | 0.00 | 48 | 1015.6 |
| 20260906145253 | 90 | 172 | 0.0 | 0.0 | 0.00 | 0.00 | 0.00 | 48 | 1015.6 |
| 20260906144743 | 90 | 155 | 2.0 | 3.0 | 0.00 | 0.00 | 0.00 | 48 | 1015.6 |
| 20260906144243 | 89 | 360 | 0.0 | 0.0 | 0.00 | 0.00 | 0.00 | 50 | 1015.6 |
| 20260906143744 | 89 | 69 | 1.0 | 2.0 | 0.00 | 0.00 | 0.00 | 50 | 1015.6 |
| 20260906143244 | 88 | 360 | 0.0 | 0.0 | 0.00 | 0.00 | 0.00 | 51 | 1015.6 |
| 20260906142743 | 88 | 148 | 0.0 | 0.0 | 0.00 | 0.00 | 0.00 | 52 | 1015.6 |
| 20260906142243 | 87 | 329 | 1.0 | 1.0 | 0.00 | 0.00 | 0.00 | 52 | 1015.6 |
| 20260906141743 | 87 | 360 | 0.0 | 0.0 | 0.00 | 0.00 | 0.00 | 53 | 1015.5 |
| 20260906141243 | 87 | 343 | 1.0 | 1.0 | 0.00 | 0.00 | 0.00 | 52 | 1015.5 |
| 20260906140743 | 87 | 360 | 0.0 | 0.0 | 0.00 | 0.00 | 0.00 | 52 | 1015.5 |
| 20260906140244 | 87 | 350 | 0.0 | 1.0 | 0.00 | 0.00 | 0.00 | 53 | 1015.4 |
| 20260906135743 | 86 | 153 | 0.0 | 0.0 | 0.00 | 0.00 | 0.00 | 53 | 1015.4 |
| 20260906135243 | 86 | 360 | 0.0 | 0.0 | 0.00 | 0.00 | 0.00 | 53 | 1015.3 |
| 20260906134743 | 85 | 345 | 0.0 | 1.0 | 0.00 | 0.00 | 0.00 | 54 | 1015.3 |
| 20260906134243 | 84 | 360 | 0.0 | 0.0 | 0.00 | 0.00 | 0.00 | 55 | 1015.3 |
| 20260906133743 | 84 | 360 | 0.0 | 0.0 | 0.00 | 0.00 | 0.00 | 56 | 1015.2 |
| 20260906133243 | 83 | 360 | 0.0 | 0.0 | 0.00 | 0.00 | 0.00 | 56 | 1015.2 |
| 20260906132743 | 83 | 360 | 0.0 | 0.0 | 0.00 | 0.00 | 0.00 | 57 | 1015.2 |
| 20260906132243 | 83 | 360 | 0.0 | 0.0 | 0.00 | 0.00 | 0.00 | 58 | 1015.2 |
| 20260906131743 | 82 | 151 | 0.0 | 1.0 | 0.00 | 0.00 | 0.00 | 57 | 1015.2 |
| 20260906131243 | 82 | 360 | 0.0 | 0.0 | 0.00 | 0.00 | 0.00 | 58 | 1015.0 |
| 20260906130744 | 82 | 157 | 1.0 | 1.0 | 0.00 | 0.00 | 0.00 | 57 | 1015.0 |
| 20260906130244 | 82 | 151 | 1.0 | 1.0 | 0.00 | 0.00 | 0.00 | 58 | 1015.0 |
| 20260906125743 | 82 | 163 | 0.0 | 1.0 | 0.00 | 0.00 | 0.00 | 58 | 1015.0 |
| 20260906125243 | 82 | 360 | 0.0 | 0.0 | 0.00 | 0.00 | 0.00 | 57 | 1015.0 |
| 20260906124743 | 82 | 160 | 1.0 | 2.0 | 0.00 | 0.00 | 0.00 | 57 | 1014.9 |
| 20260906124243 | 82 | 360 | 0.0 | 0.0 | 0.00 | 0.00 | 0.00 | 57 | 1014.9 |
| 20260906123743 | 82 | 165 | 2.0 | 2.0 | 0.00 | 0.00 | 0.00 | 57 | 1014.8 |
| 20260906123243 | 82 | 166 | 1.0 | 2.0 | 0.00 | 0.00 | 0.00 | 57 | 1014.7 |
| 20260906122743 | 82 | 164 | 1.0 | 2.0 | 0.00 | 0.00 | 0.00 | 57 | 1014.7 |
| 20260906122244 | 82 | 360 | 0.0 | 0.0 | 0.00 | 0.00 | 0.00 | 57 | 1014.7 |
| 20260906121743 | 82 | 310 | 0.0 | 0.0 | 0.00 | 0.00 | 0.00 | 57 | 1014.6 |
| 20260906121243 | 82 | 163 | 2.0 | 2.0 | 0.00 | 0.00 | 0.00 | 57 | 1014.6 |
| 20260906120746 | 82 | 163 | 1.0 | 2.0 | 0.00 | 0.00 | 0.00 | 57 | 1014.5 |
| 20260906120243 | 82 | 160 | 1.0 | 2.0 | 0.00 | 0.00 | 0.00 | 57 | 1014.5 |
| 20260906115743 | 82 | 169 | 1.0 | 1.0 | 0.00 | 0.00 | 0.00 | 57 | 1014.5 |
| 20260906115244 | 82 | 175 | 2.0 | 2.0 | 0.00 | 0.00 | 0.00 | 57 | 1014.5 |
| 20260906114743 | 82 | 167 | 2.0 | 2.0 | 0.00 | 0.00 | 0.00 | 57 | 1014.4 |
| 20260906114243 | 82 | 168 | 2.0 | 2.0 | 0.00 | 0.00 | 0.00 | 56 | 1014.2 |
| 20260906113744 | 82 | 170 | 2.0 | 2.0 | 0.00 | 0.00 | 0.00 | 56 | 1014.2 |
| 20260906113243 | 82 | 165 | 2.0 | 2.0 | 0.00 | 0.00 | 0.00 | 56 | 1014.1 |
| 20260906112743 | 82 | 170 | 2.0 | 3.0 | 0.00 | 0.00 | 0.00 | 56 | 1014.1 |
| 20260906112243 | 83 | 161 | 1.0 | 2.0 | 0.00 | 0.00 | 0.00 | 55 | 1014.0 |
| 20260906111743 | 83 | 163 | 2.0 | 2.0 | 0.00 | 0.00 | 0.00 | 55 | 1013.9 |
| 20260906111243 | 83 | 168 | 2.0 | 2.0 | 0.00 | 0.00 | 0.00 | 55 | 1013.9 |
| 20260906110743 | 83 | 163 | 2.0 | 2.0 | 0.00 | 0.00 | 0.00 | 55 | 1013.9 |
| 20260906110243 | 83 | 162 | 2.0 | 2.0 | 0.00 | 0.00 | 0.00 | 55 | 1013.9 |
| 20260906105743 | 83 | 164 | 2.0 | 2.0 | 0.00 | 0.00 | 0.00 | 54 | 1013.9 |
| 20260906105243 | 83 | 172 | 2.0 | 2.0 | 0.00 | 0.00 | 0.00 | 54 | 1013.9 |
| 20260906104743 | 83 | 169 | 2.0 | 2.0 | 0.00 | 0.00 | 0.00 | 54 | 1013.9 |
| 20260906104243 | 83 | 158 | 2.0 | 2.0 | 0.00 | 0.00 | 0.00 | 54 | 1013.8 |
| 20260906103743 | 83 | 167 | 2.0 | 2.0 | 0.00 | 0.00 | 0.00 | 54 | 1013.7 |
| 20260906103243 | 83 | 157 | 1.0 | 2.0 | 0.00 | 0.00 | 0.00 | 54 | 1013.7 |
| 20260906102746 | 83 | 165 | 1.0 | 2.0 | 0.00 | 0.00 | 0.00 | 54 | 1013.7 |
| 20260906102243 | 83 | 160 | 1.0 | 2.0 | 0.00 | 0.00 | 0.00 | 54 | 1013.7 |
| 20260906101743 | 83 | 175 | 2.0 | 2.0 | 0.00 | 0.00 | 0.00 | 54 | 1013.7 |
| 20260906101243 | 83 | 165 | 2.0 | 3.0 | 0.00 | 0.00 | 0.00 | 54 | 1013.7 |
| 20260906100744 | 83 | 165 | 1.0 | 2.0 | 0.00 | 0.00 | 0.00 | 53 | 1013.7 |
| 20260906100243 | 83 | 172 | 1.0 | 1.0 | 0.00 | 0.00 | 0.00 | 53 | 1013.6 |
| 20260906095744 | 84 | 165 | 1.0 | 2.0 | 0.00 | 0.00 | 0.00 | 53 | 1013.6 |
| 20260906095243 | 84 | 162 | 1.0 | 2.0 | 0.00 | 0.00 | 0.00 | 53 | 1013.7 |
| 20260906094744 | 84 | 171 | 1.0 | 2.0 | 0.00 | 0.00 | 0.00 | 52 | 1013.6 |
| 20260906094243 | 84 | 166 | 1.0 | 2.0 | 0.00 | 0.00 | 0.00 | 52 | 1013.6 |
| 20260906093743 | 84 | 156 | 1.0 | 2.0 | 0.00 | 0.00 | 0.00 | 52 | 1013.6 |
| 20260906093243 | 84 | 174 | 1.0 | 1.0 | 0.00 | 0.00 | 0.00 | 53 | 1013.5 |
| 20260906092744 | 84 | 172 | 1.0 | 1.0 | 0.00 | 0.00 | 0.00 | 52 | 1013.5 |
| 20260906092244 | 84 | 165 | 2.0 | 2.0 | 0.00 | 0.00 | 0.00 | 52 | 1013.6 |
| 20260906091744 | 84 | 162 | 1.0 | 2.0 | 0.00 | 0.00 | 0.00 | 52 | 1013.6 |
| 20260906091243 | 85 | 174 | 0.0 | 0.0 | 0.00 | 0.00 | 0.00 | 52 | 1013.6 |
| 20260906090744 | 85 | 164 | 0.0 | 0.0 | 0.00 | 0.00 | 0.00 | 51 | 1013.6 |
| 20260906090243 | 85 | 172 | 1.0 | 2.0 | 0.00 | 0.00 | 0.00 | 51 | 1013.6 |
| 20260906085743 | 85 | 166 | 0.0 | 1.0 | 0.00 | 0.00 | 0.00 | 51 | 1013.5 |
| 20260906085243 | 85 | 168 | 2.0 | 2.0 | 0.00 | 0.00 | 0.00 | 51 | 1013.6 |
| 20260906084743 | 85 | 165 | 1.0 | 2.0 | 0.00 | 0.00 | 0.00 | 51 | 1013.6 |
| 20260906084243 | 85 | 169 | 0.0 | 1.0 | 0.00 | 0.00 | 0.00 | 50 | 1013.6 |
| 20260906083743 | 85 | 170 | 0.0 | 0.0 | 0.00 | 0.00 | 0.00 | 50 | 1013.5 |
| 20260906083243 | 85 | 360 | 0.0 | 0.0 | 0.00 | 0.00 | 0.00 | 50 | 1013.4 |
| 20260906082743 | 85 | 153 | 0.0 | 1.0 | 0.00 | 0.00 | 0.00 | 50 | 1013.4 |
| 20260906082243 | 86 | 168 | 0.0 | 1.0 | 0.00 | 0.00 | 0.00 | 49 | 1013.4 |
| 20260906081743 | 86 | 163 | 0.0 | 0.0 | 0.00 | 0.00 | 0.00 | 49 | 1013.4 |
| 20260906081243 | 86 | 141 | 0.0 | 1.0 | 0.00 | 0.00 | 0.00 | 49 | 1013.4 |
| 20260906080744 | 86 | 175 | 1.0 | 2.0 | 0.00 | 0.00 | 0.00 | 49 | 1013.4 |
| 20260906080243 | 86 | 178 | 0.0 | 0.0 | 0.00 | 0.00 | 0.00 | 49 | 1013.4 |
| 20260906075743 | 86 | 360 | 0.0 | 0.0 | 0.00 | 0.00 | 0.00 | 49 | 1013.4 |
| 20260906075243 | 86 | 162 | 1.0 | 2.0 | 0.00 | 0.00 | 0.00 | 49 | 1013.4 |
| 20260906074743 | 86 | 168 | 1.0 | 1.0 | 0.00 | 0.00 | 0.00 | 48 | 1013.4 |
| 20260906074243 | 87 | 173 | 0.0 | 0.0 | 0.00 | 0.00 | 0.00 | 48 | 1013.4 |
| 20260906073743 | 87 | 360 | 0.0 | 0.0 | 0.00 | 0.00 | 0.00 | 48 | 1013.4 |
| 20260906073243 | 87 | 360 | 0.0 | 0.0 | 0.00 | 0.00 | 0.00 | 47 | 1013.5 |
| 20260906072744 | 87 | 360 | 0.0 | 0.0 | 0.00 | 0.00 | 0.00 | 47 | 1013.5 |
| 20260906072244 | 87 | 360 | 0.0 | 0.0 | 0.00 | 0.00 | 0.00 | 46 | 1013.5 |
| 20260906071744 | 87 | 163 | 0.0 | 1.0 | 0.00 | 0.00 | 0.00 | 46 | 1013.4 |
| 20260906071243 | 87 | 360 | 0.0 | 0.0 | 0.00 | 0.00 | 0.00 | 46 | 1013.5 |
| 20260906070743 | 87 | 360 | 0.0 | 0.0 | 0.00 | 0.00 | 0.00 | 46 | 1013.5 |
| 20260906070243 | 87 | 360 | 0.0 | 0.0 | 0.00 | 0.00 | 0.00 | 47 | 1013.5 |
| 20260906065745 | 87 | 360 | 0.0 | 0.0 | 0.00 | 0.00 | 0.00 | 46 | 1013.5 |
| 20260906065243 | 87 | 360 | 0.0 | 0.0 | 0.00 | 0.00 | 0.00 | 46 | 1013.5 |
| 20260906064743 | 87 | 360 | 0.0 | 0.0 | 0.00 | 0.00 | 0.00 | 46 | 1013.4 |
| 20260906064243 | 87 | 149 | 1.0 | 1.0 | 0.00 | 0.00 | 0.00 | 46 | 1013.5 |
| 20260906063743 | 88 | 179 | 0.0 | 1.0 | 0.00 | 0.00 | 0.00 | 45 | 1013.5 |
| 20260906063244 | 88 | 360 | 0.0 | 0.0 | 0.00 | 0.00 | 0.00 | 45 | 1013.5 |
| 20260906062744 | 88 | 360 | 0.0 | 0.0 | 0.00 | 0.00 | 0.00 | 45 | 1013.5 |
| 20260906062243 | 88 | 360 | 0.0 | 0.0 | 0.00 | 0.00 | 0.00 | 44 | 1013.5 |
| 20260906061744 | 89 | 163 | 2.0 | 2.0 | 0.00 | 0.00 | 0.00 | 44 | 1013.5 |
| 20260906061244 | 89 | 163 | 1.0 | 2.0 | 0.00 | 0.00 | 0.00 | 44 | 1013.5 |
| 20260906060743 | 89 | 168 | 0.0 | 1.0 | 0.00 | 0.00 | 0.00 | 43 | 1013.5 |
| 20260906060243 | 89 | 157 | 1.0 | 2.0 | 0.00 | 0.00 | 0.00 | 43 | 1013.5 |
| 20260906055743 | 89 | 155 | 1.0 | 3.0 | 0.00 | 0.00 | 0.00 | 42 | 1013.5 |
| 20260906055243 | 90 | 171 | 2.0 | 2.0 | 0.00 | 0.00 | 0.00 | 42 | 1013.4 |
| 20260906054743 | 90 | 143 | 1.0 | 2.0 | 0.00 | 0.00 | 0.00 | 42 | 1013.5 |
| 20260906054243 | 90 | 153 | 1.0 | 2.0 | 0.00 | 0.00 | 0.00 | 42 | 1013.5 |
| 20260906053743 | 90 | 148 | 1.0 | 2.0 | 0.00 | 0.00 | 0.00 | 41 | 1013.4 |
| 20260906053243 | 90 | 163 | 1.0 | 2.0 | 0.00 | 0.00 | 0.00 | 41 | 1013.4 |
| 20260906052743 | 90 | 160 | 1.0 | 1.0 | 0.00 | 0.00 | 0.00 | 41 | 1013.3 |
| 20260906052244 | 90 | 179 | 0.0 | 1.0 | 0.00 | 0.00 | 0.00 | 41 | 1013.2 |
| 20260906051743 | 90 | 167 | 1.0 | 2.0 | 0.00 | 0.00 | 0.00 | 41 | 1013.2 |
| 20260906051244 | 90 | 165 | 0.0 | 1.0 | 0.00 | 0.00 | 0.00 | 41 | 1013.2 |
| 20260906050743 | 91 | 151 | 1.0 | 1.0 | 0.00 | 0.00 | 0.00 | 41 | 1013.2 |
| 20260906050244 | 91 | 166 | 0.0 | 0.0 | 0.00 | 0.00 | 0.00 | 41 | 1013.2 |
| 20260906045743 | 91 | 150 | 1.0 | 1.0 | 0.00 | 0.00 | 0.00 | 41 | 1013.1 |
| 20260906045243 | 91 | 360 | 0.0 | 0.0 | 0.00 | 0.00 | 0.00 | 41 | 1013.2 |
| 20260906044743 | 91 | 154 | 0.0 | 1.0 | 0.00 | 0.00 | 0.00 | 41 | 1013.2 |
| 20260906044245 | 91 | 165 | 1.0 | 1.0 | 0.00 | 0.00 | 0.00 | 41 | 1013.1 |
| 20260906043745 | 91 | 175 | 0.0 | 1.0 | 0.00 | 0.00 | 0.00 | 41 | 1013.2 |
| 20260906043247 | 91 | 171 | 1.0 | 2.0 | 0.00 | 0.00 | 0.00 | 41 | 1013.2 |
| 20260906042744 | 91 | 163 | 2.0 | 2.0 | 0.00 | 0.00 | 0.00 | 41 | 1013.2 |
| 20260906042244 | 91 | 165 | 2.0 | 3.0 | 0.00 | 0.00 | 0.00 | 41 | 1013.2 |
| 20260906041743 | 91 | 156 | 2.0 | 2.0 | 0.00 | 0.00 | 0.00 | 41 | 1013.2 |
| 20260906041245 | 91 | 167 | 1.0 | 1.0 | 0.00 | 0.00 | 0.00 | 41 | 1013.3 |
| 20260906040745 | 91 | 155 | 1.0 | 2.0 | 0.00 | 0.00 | 0.00 | 41 | 1013.3 |
| 20260906040243 | 91 | 167 | 2.0 | 3.0 | 0.00 | 0.00 | 0.00 | 41 | 1013.3 |
| 20260906035743 | 91 | 158 | 1.0 | 1.0 | 0.00 | 0.00 | 0.00 | 41 | 1013.3 |
| 20260906035243 | 91 | 164 | 2.0 | 3.0 | 0.00 | 0.00 | 0.00 | 41 | 1013.3 |
| 20260906034743 | 91 | 154 | 2.0 | 2.0 | 0.00 | 0.00 | 0.00 | 41 | 1013.3 |
| 20260906034243 | 92 | 171 | 1.0 | 2.0 | 0.00 | 0.00 | 0.00 | 41 | 1013.3 |
| 20260906033743 | 92 | 159 | 2.0 | 2.0 | 0.00 | 0.00 | 0.00 | 41 | 1013.2 |
| 20260906033243 | 92 | 169 | 1.0 | 2.0 | 0.00 | 0.00 | 0.00 | 41 | 1013.2 |
| 20260906032743 | 92 | 160 | 1.0 | 2.0 | 0.00 | 0.00 | 0.00 | 41 | 1013.2 |
| 20260906032243 | 92 | 161 | 2.0 | 2.0 | 0.00 | 0.00 | 0.00 | 41 | 1013.2 |
| 20260906031743 | 92 | 163 | 1.0 | 2.0 | 0.00 | 0.00 | 0.00 | 41 | 1013.1 |
| 20260906031244 | 92 | 165 | 2.0 | 2.0 | 0.00 | 0.00 | 0.00 | 41 | 1013.2 |
| 20260906030743 | 92 | 159 | 2.0 | 2.0 | 0.00 | 0.00 | 0.00 | 41 | 1013.1 |
| 20260906030243 | 92 | 163 | 2.0 | 3.0 | 0.00 | 0.00 | 0.00 | 40 | 1013.1 |
| 20260906025744 | 92 | 156 | 2.0 | 3.0 | 0.00 | 0.00 | 0.00 | 40 | 1013.1 |
| 20260906025243 | 93 | 171 | 1.0 | 2.0 | 0.00 | 0.00 | 0.00 | 40 | 1013.1 |
| 20260906024743 | 93 | 154 | 2.0 | 2.0 | 0.00 | 0.00 | 0.00 | 39 | 1013.0 |
| 20260906024243 | 93 | 157 | 3.0 | 4.0 | 0.00 | 0.00 | 0.00 | 39 | 1013.0 |
| 20260906023743 | 93 | 171 | 1.0 | 2.0 | 0.00 | 0.00 | 0.00 | 39 | 1013.0 |
| 20260906023243 | 93 | 160 | 1.0 | 1.0 | 0.00 | 0.00 | 0.00 | 39 | 1012.9 |
| 20260906022743 | 93 | 157 | 2.0 | 2.0 | 0.00 | 0.00 | 0.00 | 39 | 1012.8 |
| 20260906022244 | 94 | 360 | 0.0 | 0.0 | 0.00 | 0.00 | 0.00 | 39 | 1012.8 |
| 20260906021743 | 94 | 153 | 0.0 | 1.0 | 0.00 | 0.00 | 0.00 | 38 | 1012.7 |
| 20260906021243 | 94 | 157 | 1.0 | 1.0 | 0.00 | 0.00 | 0.00 | 38 | 1012.7 |
| 20260906020744 | 94 | 161 | 3.0 | 4.0 | 0.00 | 0.00 | 0.00 | 38 | 1012.6 |
| 20260906020243 | 94 | 151 | 1.0 | 2.0 | 0.00 | 0.00 | 0.00 | 38 | 1012.6 |
| 20260906015743 | 94 | 164 | 2.0 | 2.0 | 0.00 | 0.00 | 0.00 | 38 | 1012.6 |
| 20260906015243 | 94 | 360 | 0.0 | 0.0 | 0.00 | 0.00 | 0.00 | 37 | 1012.6 |
| 20260906014743 | 95 | 152 | 0.0 | 0.0 | 0.00 | 0.00 | 0.00 | 37 | 1012.5 |
| 20260906014244 | 95 | 151 | 1.0 | 2.0 | 0.00 | 0.00 | 0.00 | 37 | 1012.4 |
| 20260906013743 | 95 | 157 | 2.0 | 2.0 | 0.00 | 0.00 | 0.00 | 37 | 1012.4 |
| 20260906013243 | 95 | 160 | 3.0 | 4.0 | 0.00 | 0.00 | 0.00 | 37 | 1012.3 |
| 20260906012744 | 95 | 159 | 2.0 | 3.0 | 0.00 | 0.00 | 0.00 | 36 | 1012.3 |
| 20260906012244 | 96 | 160 | 3.0 | 4.0 | 0.00 | 0.00 | 0.00 | 36 | 1012.2 |
| 20260906011743 | 96 | 155 | 3.0 | 4.0 | 0.00 | 0.00 | 0.00 | 36 | 1012.2 |
| 20260906011243 | 96 | 155 | 1.0 | 2.0 | 0.00 | 0.00 | 0.00 | 35 | 1012.2 |
| 20260906010743 | 96 | 155 | 3.0 | 4.0 | 0.00 | 0.00 | 0.00 | 35 | 1012.2 |
| 20260906010244 | 96 | 152 | 2.0 | 2.0 | 0.00 | 0.00 | 0.00 | 35 | 1012.1 |
| 20260906005743 | 97 | 151 | 1.0 | 2.0 | 0.00 | 0.00 | 0.00 | 34 | 1012.0 |
| 20260906005243 | 97 | 160 | 4.0 | 4.0 | 0.00 | 0.00 | 0.00 | 34 | 1012.0 |
| 20260906004743 | 97 | 160 | 3.0 | 4.0 | 0.00 | 0.00 | 0.00 | 34 | 1011.9 |
| 20260906004244 | 97 | 165 | 3.0 | 5.0 | 0.00 | 0.00 | 0.00 | 34 | 1011.9 |
| 20260906003743 | 98 | 161 | 4.0 | 4.0 | 0.00 | 0.00 | 0.00 | 34 | 1011.9 |
| 20260906003243 | 98 | 161 | 3.0 | 4.0 | 0.00 | 0.00 | 0.00 | 33 | 1011.9 |
| 20260906002745 | 98 | 162 | 3.0 | 5.0 | 0.00 | 0.00 | 0.00 | 33 | 1011.9 |
| 20260906002243 | 98 | 169 | 3.0 | 5.0 | 0.00 | 0.00 | 0.00 | 33 | 1011.9 |
| 20260906001743 | 98 | 166 | 4.0 | 5.0 | 0.00 | 0.00 | 0.00 | 33 | 1011.8 |
| 20260906001244 | 98 | 160 | 3.0 | 4.0 | 0.00 | 0.00 | 0.00 | 32 | 1011.8 |
| 20260906000743 | 98 | 154 | 2.0 | 2.0 | 0.00 | 0.00 | 0.00 | 32 | 1011.8 |
| 20260906000243 | 98 | 169 | 2.0 | 3.0 | 0.00 | 0.00 | 0.00 | 32 | 1011.7 |
| 20260905235744 | 98 | 359 | 2.0 | 2.0 | 0.00 | 0.00 | 0.00 | 32 | 1011.7 |
| 20260905235244 | 99 | 160 | 5.0 | 6.0 | 0.00 | 0.00 | 0.00 | 32 | 1011.7 |
| 20260905234743 | 99 | 171 | 2.0 | 3.0 | 0.00 | 0.00 | 0.00 | 32 | 1011.7 |
| 20260905234243 | 99 | 171 | 4.0 | 5.0 | 0.00 | 0.00 | 0.00 | 32 | 1011.6 |
| 20260905233743 | 99 | 152 | 2.0 | 3.0 | 0.00 | 0.00 | 0.00 | 32 | 1011.6 |
| 20260905233243 | 99 | 165 | 2.0 | 3.0 | 0.00 | 0.00 | 0.00 | 31 | 1011.6 |
| 20260905232743 | 99 | 163 | 1.0 | 2.0 | 0.00 | 0.00 | 0.00 | 32 | 1011.4 |
| 20260905232244 | 98 | 171 | 5.0 | 8.0 | 0.00 | 0.00 | 0.00 | 32 | 1011.4 |
| 20260905231744 | 98 | 160 | 2.0 | 4.0 | 0.00 | 0.00 | 0.00 | 32 | 1011.4 |
| 20260905231243 | 98 | 177 | 3.0 | 5.0 | 0.00 | 0.00 | 0.00 | 32 | 1011.4 |
| 20260905230743 | 99 | 155 | 3.0 | 4.0 | 0.00 | 0.00 | 0.00 | 31 | 1011.4 |
| 20260905230243 | 99 | 164 | 5.0 | 6.0 | 0.00 | 0.00 | 0.00 | 32 | 1011.4 |
| 20260905225743 | 99 | 173 | 2.0 | 2.0 | 0.00 | 0.00 | 0.00 | 32 | 1011.4 |
| 20260905225243 | 99 | 147 | 3.0 | 4.0 | 0.00 | 0.00 | 0.00 | 31 | 1011.4 |
| 20260905224743 | 98 | 160 | 1.0 | 2.0 | 0.00 | 0.00 | 0.00 | 32 | 1011.3 |
| 20260905224244 | 99 | 166 | 4.0 | 6.0 | 0.00 | 0.00 | 0.00 | 31 | 1011.4 |
| 20260905223743 | 99 | 165 | 5.0 | 7.0 | 0.00 | 0.00 | 0.00 | 31 | 1011.4 |
| 20260905223243 | 99 | 170 | 1.0 | 2.0 | 0.00 | 0.00 | 0.00 | 31 | 1011.3 |
| 20260905222743 | 98 | 159 | 4.0 | 5.0 | 0.00 | 0.00 | 0.00 | 32 | 1011.4 |
| 20260905222243 | 99 | 156 | 4.0 | 4.0 | 0.00 | 0.00 | 0.00 | 32 | 1011.4 |
| 20260905221743 | 99 | 159 | 3.0 | 4.0 | 0.00 | 0.00 | 0.00 | 31 | 1011.4 |
| 20260905221243 | 99 | 160 | 4.0 | 4.0 | 0.00 | 0.00 | 0.00 | 31 | 1011.4 |
| 20260905220743 | 99 | 161 | 2.0 | 3.0 | 0.00 | 0.00 | 0.00 | 31 | 1011.6 |
| 20260905220243 | 99 | 155 | 4.0 | 4.0 | 0.00 | 0.00 | 0.00 | 31 | 1011.6 |
| 20260905215743 | 99 | 130 | 2.0 | 4.0 | 0.00 | 0.00 | 0.00 | 31 | 1011.6 |
| 20260905215243 | 98 | 146 | 0.0 | 0.0 | 0.00 | 0.00 | 0.00 | 31 | 1011.6 |
| 20260905214743 | 98 | 162 | 4.0 | 4.0 | 0.00 | 0.00 | 0.00 | 32 | 1011.7 |
| 20260905214244 | 98 | 139 | 2.0 | 3.0 | 0.00 | 0.00 | 0.00 | 32 | 1011.8 |
| 20260905213743 | 98 | 157 | 3.0 | 4.0 | 0.00 | 0.00 | 0.00 | 32 | 1011.8 |
| 20260905213243 | 99 | 159 | 4.0 | 5.0 | 0.00 | 0.00 | 0.00 | 32 | 1011.9 |
| 20260905212743 | 99 | 164 | 2.0 | 2.0 | 0.00 | 0.00 | 0.00 | 32 | 1012.0 |
| 20260905212244 | 98 | 178 | 2.0 | 3.0 | 0.00 | 0.00 | 0.00 | 31 | 1012.1 |
| 20260905211743 | 98 | 163 | 3.0 | 4.0 | 0.00 | 0.00 | 0.00 | 33 | 1012.1 |
| 20260905211243 | 98 | 163 | 0.0 | 1.0 | 0.00 | 0.00 | 0.00 | 33 | 1012.2 |
| 20260905210743 | 98 | 157 | 2.0 | 3.0 | 0.00 | 0.00 | 0.00 | 33 | 1012.3 |
| 20260905210243 | 98 | 163 | 4.0 | 4.0 | 0.00 | 0.00 | 0.00 | 32 | 1012.3 |
| 20260905205743 | 98 | 143 | 2.0 | 2.0 | 0.00 | 0.00 | 0.00 | 33 | 1012.3 |
| 20260905205243 | 98 | 158 | 2.0 | 3.0 | 0.00 | 0.00 | 0.00 | 33 | 1012.4 |
| 20260905204743 | 98 | 155 | 5.0 | 7.0 | 0.00 | 0.00 | 0.00 | 33 | 1012.4 |
| 20260905204243 | 99 | 142 | 3.0 | 4.0 | 0.00 | 0.00 | 0.00 | 32 | 1012.5 |
| 20260905203743 | 99 | 151 | 5.0 | 6.0 | 0.00 | 0.00 | 0.00 | 32 | 1012.6 |
| 20260905203243 | 98 | 152 | 4.0 | 5.0 | 0.00 | 0.00 | 0.00 | 32 | 1012.7 |